Time;durP1;ratioP1;P1;durP2;ratioP2;P2;SDS_P1;SDS_P2;PMS_P1;PMS_P2;Temp;Humidity;BMP_temperature;BMP_pressure;BME280_temperature;BME280_humidity;BME280_pressure;Samples;Min_cycle;Max_cycle;Signal;HPM_P1;HPM_P2
2022/02/10 00:16:13;;;;;;;;;21.00;16.25;;;;;13.81;43.54;99121.00;4814892;28;102514;-89
2022/02/10 00:21:44;;;;;;;;;17.25;14.50;;;;;13.82;44.18;99117.25;4811043;28;104067;-88
2022/02/10 00:35:26;;;;;;;;;18.50;13.75;;;;;13.81;43.85;99121.00;4804418;29;108867;-86
2022/02/10 00:37:58;;;;;;;;;24.00;17.75;;;;;13.80;44.40;99119.31;4817167;28;102298;-88
2022/02/10 00:40:36;;;;;;;;;18.75;15.25;;;;;13.79;44.02;99117.66;4816047;28;102521;-88
2022/02/10 00:43:04;;;;;;;;;22.00;15.75;;;;;13.79;43.95;99110.34;4809717;28;102376;-88
2022/02/10 00:45:32;;;;;;;;;19.75;16.50;;;;;13.77;43.83;99117.88;4800881;28;104064;-88
2022/02/10 00:48:03;;;;;;;;;17.25;16.25;;;;;13.78;44.51;99110.53;4803040;28;110387;-89
2022/02/10 00:50:31;;;;;;;;;17.75;15.25;;;;;13.75;44.54;99108.25;4809211;28;102439;-88
2022/02/10 00:55:31;;;;;;;;;17.25;15.00;;;;;13.77;43.99;99106.16;4802671;28;104007;-88
2022/02/10 00:57:59;;;;;;;;;17.00;14.75;;;;;13.76;44.39;99102.59;4806422;28;102066;-88
2022/02/10 01:14:05;;;;;;;;;16.25;13.50;;;;;13.77;44.18;99111.59;4810475;28;102454;-88
2022/02/10 01:30:02;;;;;;;;;16.00;12.25;;;;;13.72;43.51;99111.38;4812744;28;102532;-88
2022/02/10 01:32:29;;;;;;;;;16.00;12.00;;;;;13.70;43.84;99108.88;4797564;28;102606;-88
2022/02/10 01:34:56;;;;;;;;;15.25;12.00;;;;;13.71;43.66;99101.56;4807891;28;102595;-88
2022/02/10 01:37:24;;;;;;;;;19.75;17.00;;;;;13.70;43.53;99099.88;4790783;28;104589;-88
2022/02/10 01:39:56;;;;;;;;;16.00;13.00;;;;;13.72;44.23;99095.09;4778891;28;103673;-88
2022/02/10 02:04:52;;;;;;;;;15.50;11.25;;;;;13.67;44.22;99076.69;4801947;28;104033;-87
2022/02/10 02:07:27;;;;;;;;;12.75;10.75;;;;;13.68;43.91;99072.94;4811003;28;102499;-88
2022/02/10 02:09:55;;;;;;;;;15.00;11.75;;;;;13.69;44.00;99073.75;4564925;28;108736;-87
2022/02/10 02:12:22;;;;;;;;;16.75;12.00;;;;;13.68;43.92;99082.97;4643121;29;102356;-87
2022/02/10 02:14:49;;;;;;;;;12.00;10.50;;;;;13.66;44.33;99079.59;4707115;28;102392;-88
2022/02/10 02:17:16;;;;;;;;;15.50;13.00;;;;;13.67;44.31;99078.56;4694511;28;102495;-87
2022/02/10 02:19:43;;;;;;;;;14.75;10.75;;;;;13.67;43.58;99071.25;4652797;29;104077;-87
2022/02/10 02:22:12;;;;;;;;;9.00;8.25;;;;;13.70;43.74;99080.84;4650881;29;103055;-89
2022/02/10 02:24:40;;;;;;;;;18.25;10.25;;;;;13.71;44.07;99082.53;4813578;28;102186;-88
2022/02/10 02:27:09;;;;;;;;;17.00;11.75;;;;;13.69;44.38;99079.16;4788958;28;105551;-88
2022/02/10 02:29:41;;;;;;;;;16.75;13.00;;;;;13.69;44.48;99076.47;4769207;28;104448;-89
2022/02/10 02:32:20;;;;;;;;;14.75;10.25;;;;;13.68;43.82;99080.25;4786065;29;104741;-88
2022/02/10 03:03:55;;;;;;;;;12.25;9.75;;;;;13.67;43.74;99082.13;4752093;28;104064;-89
2022/02/10 03:05:10;;;;;;;;;12.25;11.75;;;;;13.62;44.37;99068.31;4810979;28;102085;-88
2022/02/10 03:07:45;;;;;;;;;10.00;10.00;;;;;13.63;44.39;99069.16;4801888;29;102652;-88
2022/02/10 03:12:41;;;;;;;;;9.50;8.00;;;;;13.70;44.43;99061.81;4807060;28;104284;-88
2022/02/10 03:15:18;;;;;;;;;12.00;11.50;;;;;13.73;44.43;99069.59;4788763;28;103652;-89
2022/02/10 03:21:08;;;;;;;;;11.75;10.00;;;;;13.81;44.17;99055.78;4814896;28;102583;-88
2022/02/10 04:10:33;;;;;;;;;8.00;6.00;;;;;14.07;42.96;99044.84;4809363;28;105816;-88
2022/02/10 04:20:48;;;;;;;;;11.50;9.25;;;;;14.07;43.36;99044.84;4795834;28;103221;-88
2022/02/10 04:23:34;;;;;;;;;10.00;9.00;;;;;14.08;43.15;99042.97;4801868;29;103742;-88
2022/02/10 04:31:58;;;;;;;;;7.50;6.25;;;;;14.09;43.17;99021.00;4805303;28;102576;-87
2022/02/10 05:01:15;;;;;;;;;6.00;5.25;;;;;14.02;43.10;99025.63;4815063;28;104094;-88
2022/02/10 05:35:40;;;;;;;;;9.50;6.25;;;;;13.97;44.01;99022.69;4798736;28;103025;-88
2022/02/10 05:38:24;;;;;;;;;7.75;6.75;;;;;13.97;43.02;99028.13;4816866;28;102427;-88
2022/02/10 05:57:14;;;;;;;;;9.50;7.50;;;;;13.94;42.94;99038.59;4809894;28;104353;-88
2022/02/10 06:51:27;;;;;;;;;6.50;4.75;;;;;14.14;43.09;99010.31;4795577;28;107780;-87
2022/02/10 06:54:06;;;;;;;;;11.75;8.25;;;;;14.17;43.20;98995.47;4810052;28;102209;-88
2022/02/10 07:48:31;;;;;;;;;8.50;6.25;;;;;14.56;42.68;98989.88;4809152;28;102164;-87
2022/02/10 08:27:04;;;;;;;;;6.75;6.75;;;;;14.64;42.60;98958.84;4784298;28;108763;-87
2022/02/10 09:04:10;;;;;;;;;6.75;4.75;;;;;14.67;43.07;98936.66;4814324;28;102751;-89
2022/02/10 09:58:59;;;;;;;;;4.50;4.25;;;;;14.72;42.28;98925.94;4812067;28;101735;-88
2022/02/10 10:04:19;;;;;;;;;5.50;5.00;;;;;14.74;42.32;98926.53;4813658;28;104257;-88
2022/02/10 10:12:37;;;;;;;;;5.00;3.50;;;;;14.75;42.23;98917.34;4808446;28;102109;-88
2022/02/10 10:15:40;;;;;;;;;4.25;4.00;;;;;14.75;42.41;98914.59;4806093;28;110098;-88
2022/02/10 10:56:02;;;;;;;;;3.75;2.50;;;;;14.86;42.63;98826.75;4817325;28;102683;-88
2022/02/10 10:58:43;;;;;;;;;5.00;4.25;;;;;14.87;42.30;98825.72;4808117;28;108937;-87
2022/02/10 11:38:35;;;;;;;;;6.00;3.50;;;;;14.99;42.22;98734.09;4788583;28;102620;-87
2022/02/10 14:14:32;;;;;;;;;3.75;3.00;;;;;16.26;41.53;98563.00;4804112;29;102005;-87
2022/02/10 14:17:06;;;;;;;;;3.00;3.00;;;;;16.24;41.51;98562.44;4822453;28;103003;-87
2022/02/10 14:19:57;;;;;;;;;4.00;2.00;;;;;16.22;41.10;98570.00;4827408;28;103489;-87
2022/02/10 14:28:09;;;;;;;;;4.00;2.25;;;;;16.13;41.46;98560.53;4810401;28;102249;-87
2022/02/10 14:30:36;;;;;;;;;1.75;1.75;;;;;16.12;41.32;98556.16;4807256;29;102404;-87
2022/02/10 14:33:03;;;;;;;;;4.00;3.00;;;;;16.10;41.52;98552.84;4811869;28;102440;-87
2022/02/10 14:35:52;;;;;;;;;2.75;2.50;;;;;16.07;41.26;98562.34;4818777;28;105651;-87
2022/02/10 14:38:51;;;;;;;;;2.50;2.25;;;;;16.08;41.33;98572.16;4815585;28;102268;-87
2022/02/10 15:16:04;;;;;;;;;2.00;1.00;;;;;15.82;41.29;98532.56;4811824;28;108192;-88
2022/02/10 16:12:07;;;;;;;;;5.00;3.50;;;;;15.62;42.26;98469.38;4803316;28;103825;-81
2022/02/10 16:16:57;;;;;;;;;6.75;6.00;;;;;15.61;42.28;98470.44;4808251;28;102547;-82
2022/02/10 16:19:25;;;;;;;;;5.00;4.00;;;;;15.60;42.26;98468.78;4796398;28;108947;-81
2022/02/10 16:24:52;;;;;;;;;5.00;5.00;;;;;15.61;42.19;98467.72;4813944;28;105711;-83
2022/02/10 16:27:25;;;;;;;;;5.75;5.75;;;;;15.62;41.91;98474.84;4794790;29;103255;-83
2022/02/10 16:29:57;;;;;;;;;5.25;4.00;;;;;15.60;42.72;98461.44;4804364;29;109753;-83
2022/02/10 16:32:29;;;;;;;;;6.25;5.50;;;;;15.61;42.22;98454.91;4795143;29;102484;-83
2022/02/10 16:35:02;;;;;;;;;3.00;3.00;;;;;15.62;42.35;98461.22;4812613;28;103921;-82
2022/02/10 16:37:35;;;;;;;;;5.25;4.25;;;;;15.61;42.18;98456.81;4816683;28;102311;-82
2022/02/10 16:40:08;;;;;;;;;5.00;5.00;;;;;15.61;42.19;98454.09;4803539;28;103906;-81
2022/02/10 16:42:40;;;;;;;;;5.00;4.00;;;;;15.60;42.13;98434.19;4828280;28;102309;-80
2022/02/10 16:45:11;;;;;;;;;3.50;3.50;;;;;15.60;42.30;98433.34;4804126;28;103934;-81
2022/02/10 16:47:43;;;;;;;;;4.75;2.00;;;;;15.61;42.07;98426.84;4780022;28;102223;-81
2022/02/10 16:50:16;;;;;;;;;5.50;5.00;;;;;15.59;42.26;98434.41;4813274;28;103764;-81
2022/02/10 16:52:54;;;;;;;;;4.50;4.50;;;;;15.59;42.10;98434.41;4813949;29;102660;-83
2022/02/10 17:17:55;;;;;;;;;3.00;3.00;;;;;15.55;42.45;98449.56;4727506;28;103185;-82
2022/02/10 17:20:42;;;;;;;;;4.00;4.00;;;;;15.54;42.61;98447.91;4697682;28;103364;-79
2022/02/10 17:26:19;;;;;;;;;5.25;4.00;;;;;15.51;42.46;98459.28;4837168;28;102644;-81
2022/02/10 17:28:47;;;;;;;;;3.00;3.00;;;;;15.48;42.51;98459.75;4834380;29;102164;-81
2022/02/10 17:34:04;;;;;;;;;5.00;4.25;;;;;15.47;42.45;98485.31;4813008;28;104065;-79
2022/02/10 17:36:39;;;;;;;;;5.50;4.00;;;;;15.44;42.57;98483.91;4813412;28;104061;-80
2022/02/10 17:44:50;;;;;;;;;5.50;5.25;;;;;15.43;42.56;98484.13;4808693;28;104489;-81
2022/02/10 17:53:02;;;;;;;;;5.25;5.25;;;;;15.42;42.60;98493.38;4815873;28;103087;-80
2022/02/10 17:55:30;;;;;;;;;6.00;5.00;;;;;15.40;42.53;98501.75;4817295;28;104165;-80
2022/02/10 17:57:58;;;;;;;;;4.75;4.25;;;;;15.39;42.75;98494.69;4817670;28;102633;-81
2022/02/10 18:00:27;;;;;;;;;9.75;6.75;;;;;15.38;42.81;98495.75;4813732;29;102428;-81
2022/02/10 18:02:59;;;;;;;;;9.00;6.00;;;;;15.37;43.01;98495.97;4816005;28;102542;-81
2022/02/10 18:08:16;;;;;;;;;5.00;4.75;;;;;15.34;42.50;98482.81;4806998;28;102765;-82
2022/02/10 18:13:49;;;;;;;;;5.75;5.25;;;;;15.33;42.64;98478.44;4811451;28;102271;-81
2022/02/10 18:16:23;;;;;;;;;6.00;4.00;;;;;15.30;43.08;98478.91;4832677;29;104054;-80
2022/02/10 18:18:55;;;;;;;;;10.75;7.00;;;;;15.31;42.87;98486.03;4783895;28;102691;-80
2022/02/10 18:25:05;;;;;;;;;6.00;6.00;;;;;15.30;42.64;98484.34;4822038;28;102446;-80
2022/02/10 18:30:11;;;;;;;;;5.00;5.00;;;;;15.29;42.81;98479.97;4824751;28;102612;-80
2022/02/10 19:04:09;;;;;;;;;8.50;6.25;;;;;15.21;42.97;98466.69;4816079;28;103908;-85
2022/02/10 19:05:44;;;;;;;;;8.50;6.00;;;;;15.23;43.01;98470.00;4813962;28;102198;-81
2022/02/10 19:10:49;;;;;;;;;6.00;4.00;;;;;15.29;42.62;98458.16;4810685;28;109010;-85
2022/02/10 19:13:18;;;;;;;;;6.00;5.25;;;;;15.32;42.52;98460.41;4813056;28;102973;-85
2022/02/10 19:15:45;;;;;;;;;9.00;8.00;;;;;15.34;42.59;98453.69;4816883;28;104809;-86
2022/02/10 19:18:12;;;;;;;;;9.00;5.25;;;;;15.36;42.68;98456.16;4814527;28;102579;-85
2022/02/10 19:20:39;;;;;;;;;5.50;5.50;;;;;15.38;42.49;98454.03;4813675;28;104121;-85
2022/02/10 19:23:07;;;;;;;;;5.00;4.00;;;;;15.40;42.53;98460.91;4819881;28;103116;-85
2022/02/10 19:25:36;;;;;;;;;4.00;4.00;;;;;15.42;42.52;98460.66;4809729;29;102709;-87
2022/02/10 19:28:04;;;;;;;;;6.25;6.00;;;;;15.43;42.45;98463.16;4815996;28;102220;-85
2022/02/10 19:30:35;;;;;;;;;5.25;5.00;;;;;15.43;42.69;98465.91;4815314;28;103897;-85
2022/02/10 19:33:04;;;;;;;;;6.00;5.50;;;;;15.46;42.28;98475.47;4812335;29;102161;-85
2022/02/10 19:35:33;;;;;;;;;6.25;4.75;;;;;15.47;42.58;98480.69;4816103;28;102386;-85
2022/02/10 19:38:02;;;;;;;;;6.25;6.00;;;;;15.49;42.06;98483.22;4817288;28;105044;-85
2022/02/10 19:40:38;;;;;;;;;6.50;6.00;;;;;15.51;42.46;98481.09;4809011;28;104267;-84
2022/02/10 19:43:05;;;;;;;;;6.50;5.75;;;;;15.51;42.61;98483.81;4809342;28;103895;-85
2022/02/10 19:45:33;;;;;;;;;3.50;3.00;;;;;15.53;42.35;98492.59;4812148;28;102185;-85
2022/02/10 19:48:00;;;;;;;;;9.00;6.50;;;;;15.53;42.62;98489.88;4819275;28;103679;-85
2022/02/10 19:50:45;;;;;;;;;5.50;5.00;;;;;15.53;42.57;98495.31;4815747;28;104223;-85
2022/02/10 19:53:28;;;;;;;;;4.75;4.75;;;;;15.52;42.61;98488.22;4827681;28;102687;-84
2022/02/10 19:56:05;;;;;;;;;5.25;4.25;;;;;15.53;43.00;98490.72;4816283;29;102549;-79
2022/02/10 19:58:44;;;;;;;;;9.50;6.00;;;;;15.54;42.52;98496.97;4816138;29;102595;-79
2022/02/10 20:01:11;;;;;;;;;6.50;5.00;;;;;15.53;42.53;98495.31;4813167;28;103113;-85
2022/02/10 20:03:40;;;;;;;;;5.50;5.00;;;;;15.53;42.43;98500.78;4817189;28;102243;-85
2022/02/10 20:06:08;;;;;;;;;5.00;4.25;;;;;15.52;42.50;98494.50;4812589;28;102717;-80
2022/02/10 20:08:35;;;;;;;;;6.00;5.75;;;;;15.52;42.59;98508.13;4817628;29;102828;-85
2022/02/10 20:11:02;;;;;;;;;8.25;5.50;;;;;15.52;42.39;98504.56;4817768;28;103819;-86
2022/02/10 20:13:29;;;;;;;;;6.00;4.25;;;;;15.51;42.44;98500.16;4817014;28;102399;-85
2022/02/10 20:16:00;;;;;;;;;7.00;6.00;;;;;15.51;42.52;98508.34;4816309;28;110214;-85
2022/02/10 20:18:27;;;;;;;;;5.25;5.25;;;;;15.51;42.66;98502.88;4819480;28;102561;-85
2022/02/10 20:20:55;;;;;;;;;8.50;6.50;;;;;15.51;42.47;98513.78;4819404;28;104068;-85
2022/02/10 20:23:23;;;;;;;;;5.25;4.75;;;;;15.50;42.53;98506.66;4816015;29;102292;-81
2022/02/10 20:26:12;;;;;;;;;5.25;5.00;;;;;15.49;42.77;98511.25;4816786;28;102328;-84
2022/02/10 20:28:41;;;;;;;;;6.00;5.00;;;;;15.50;42.35;98512.09;4821407;28;103896;-85
2022/02/10 20:31:09;;;;;;;;;5.25;5.25;;;;;15.49;42.73;98515.91;4819378;28;104016;-84
2022/02/10 20:33:36;;;;;;;;;4.75;4.75;;;;;15.48;42.50;98515.06;4819377;28;102506;-84
2022/02/10 20:36:04;;;;;;;;;5.75;5.75;;;;;15.47;42.64;98513.41;4820194;28;102460;-85
2022/02/10 20:38:33;;;;;;;;;6.00;6.00;;;;;15.46;42.57;98508.19;4818289;28;102890;-84
2022/02/10 20:41:03;;;;;;;;;5.75;5.00;;;;;15.45;42.66;98510.06;4821334;28;104068;-84
2022/02/10 20:43:30;;;;;;;;;5.50;5.50;;;;;15.44;42.52;98513.88;4822714;28;102658;-85
2022/02/10 20:46:01;;;;;;;;;4.50;4.50;;;;;15.44;42.49;98518.50;4818118;28;102894;-84
2022/02/10 20:48:31;;;;;;;;;6.00;5.00;;;;;15.43;42.70;98516.84;4821629;28;102226;-86
2022/02/10 20:50:58;;;;;;;;;6.25;6.25;;;;;15.42;42.47;98515.16;4815827;28;104133;-84
2022/02/10 20:53:29;;;;;;;;;1.00;1.00;;;;;15.42;42.50;98523.34;4818624;28;102475;-85
2022/02/10 20:56:01;;;;;;;;;9.75;6.50;;;;;15.39;42.70;98516.47;4820927;28;104064;-85
2022/02/10 20:58:29;;;;;;;;;5.50;5.00;;;;;15.40;42.53;98520.03;4819741;28;102184;-85
2022/02/10 21:00:59;;;;;;;;;5.25;4.75;;;;;15.39;42.85;98523.81;4818333;28;104363;-85
2022/02/10 21:03:29;;;;;;;;;6.50;5.50;;;;;15.39;42.75;98521.09;4816115;28;102599;-84
2022/02/10 21:08:59;;;;;;;;;8.25;6.75;;;;;15.39;42.79;98516.47;4818711;28;106225;-84
2022/02/10 21:11:24;;;;;;;;;6.00;5.00;;;;;15.39;42.71;98516.47;4820665;28;108712;-84
2022/02/10 21:13:52;;;;;;;;;5.25;4.25;;;;;15.38;42.63;98516.69;4820973;28;102847;-85
2022/02/10 21:16:19;;;;;;;;;5.00;5.00;;;;;15.38;42.91;98508.53;4817123;29;102498;-85
2022/02/10 21:18:47;;;;;;;;;9.75;6.50;;;;;15.38;42.75;98517.53;4820457;28;102247;-85
2022/02/10 21:21:16;;;;;;;;;8.75;6.50;;;;;15.36;42.65;98511.47;4819669;29;104082;-79
2022/02/10 21:23:56;;;;;;;;;5.25;4.25;;;;;15.36;42.77;98524.25;4818512;29;102247;-80
2022/02/10 21:26:29;;;;;;;;;6.50;4.75;;;;;15.35;42.64;98520.75;4814483;28;103587;-81
2022/02/10 21:29:16;;;;;;;;;4.25;4.25;;;;;15.35;42.30;98526.19;4813467;28;102939;-81
2022/02/10 21:32:03;;;;;;;;;6.00;4.50;;;;;15.35;42.76;98522.63;4827226;28;109751;-83
2022/02/10 21:34:34;;;;;;;;;5.25;4.75;;;;;15.33;43.13;98530.19;4831806;28;102750;-83
2022/02/10 21:37:06;;;;;;;;;5.00;4.25;;;;;15.32;42.94;98523.91;4807340;28;102905;-83
2022/02/10 21:47:42;;;;;;;;;3.00;2.25;;;;;15.34;42.80;98523.69;4819480;28;103702;-82
2022/02/10 21:55:47;;;;;;;;;6.00;5.00;;;;;15.31;42.67;98530.41;4805317;28;102334;-79
2022/02/10 21:59:40;;;;;;;;;5.00;3.25;;;;;15.32;42.81;98536.69;4815840;28;102205;-80
2022/02/10 22:16:27;;;;;;;;;8.50;5.00;;;;;15.26;43.04;98543.09;4818535;28;102567;-82
2022/02/10 22:20:11;;;;;;;;;5.50;4.00;;;;;15.26;43.29;98548.53;4817258;28;102680;-80
2022/02/10 22:22:50;;;;;;;;;6.00;5.50;;;;;15.26;42.84;98545.81;4819784;28;102280;-80
2022/02/10 22:25:17;;;;;;;;;5.25;5.25;;;;;15.26;42.79;98551.25;4817623;28;104284;-80
2022/02/10 22:27:48;;;;;;;;;4.00;4.00;;;;;15.25;42.74;98558.59;4813501;28;102568;-80
2022/02/10 22:30:26;;;;;;;;;6.25;5.50;;;;;15.25;43.04;98552.31;4815784;28;102136;-79
2022/02/10 22:33:15;;;;;;;;;4.50;4.00;;;;;15.24;42.94;98553.38;4823255;28;103772;-80
2022/02/10 22:35:41;;;;;;;;;4.75;4.00;;;;;15.22;43.05;98553.59;4818639;28;109088;-80
2022/02/10 22:38:08;;;;;;;;;7.25;5.00;;;;;15.22;42.97;98558.25;4811915;28;102606;-80
2022/02/10 22:40:58;;;;;;;;;5.75;5.75;;;;;15.22;43.07;98552.78;4815689;28;103921;-80
2022/02/10 22:43:26;;;;;;;;;5.00;5.00;;;;;15.19;43.03;98554.06;4813160;28;102345;-80
2022/02/10 22:45:53;;;;;;;;;4.75;4.50;;;;;15.19;42.81;98559.50;4817894;28;103065;-80
2022/02/10 22:48:24;;;;;;;;;6.00;4.00;;;;;15.19;42.73;98564.97;4818954;28;102709;-80
2022/02/10 22:50:51;;;;;;;;;7.25;5.00;;;;;15.17;42.72;98557.00;4817575;28;103562;-80
2022/02/10 22:53:18;;;;;;;;;6.75;5.25;;;;;15.17;42.95;98562.47;4817237;28;102642;-80
2022/02/10 22:55:45;;;;;;;;;4.75;4.00;;;;;15.11;42.95;98568.03;4821842;28;102873;-80
2022/02/10 22:58:12;;;;;;;;;5.50;4.50;;;;;15.12;43.11;98573.25;4799639;29;102914;-80
2022/02/10 23:00:49;;;;;;;;;8.50;4.00;;;;;15.13;43.12;98577.59;4816093;28;102571;-80
2022/02/10 23:03:21;;;;;;;;;7.50;4.00;;;;;15.14;42.83;98594.78;4804668;28;102715;-79
2022/02/10 23:05:48;;;;;;;;;5.50;4.00;;;;;15.15;42.93;98594.56;4810040;28;103347;-80
2022/02/10 23:08:15;;;;;;;;;6.00;5.00;;;;;15.14;43.07;98598.34;4814802;28;104426;-80
2022/02/10 23:13:33;;;;;;;;;5.00;3.00;;;;;15.13;43.34;98598.56;4819976;28;102480;-80
2022/02/10 23:16:06;;;;;;;;;6.00;5.25;;;;;15.11;43.19;98601.53;4811315;28;109624;-80
2022/02/10 23:18:34;;;;;;;;;3.75;3.00;;;;;15.11;43.15;98606.97;4816439;28;102359;-80
2022/02/10 23:21:05;;;;;;;;;8.50;4.00;;;;;15.10;42.87;98594.41;4816525;28;102747;-79
2022/02/10 23:23:33;;;;;;;;;4.00;4.00;;;;;15.08;43.10;98591.09;4821340;28;103003;-80
2022/02/10 23:26:00;;;;;;;;;4.00;3.25;;;;;15.08;42.97;98593.81;4815476;28;104103;-80
2022/02/10 23:28:30;;;;;;;;;5.00;4.00;;;;;15.07;42.94;98589.44;4815650;28;102720;-80
2022/02/10 23:30:57;;;;;;;;;4.00;3.75;;;;;15.05;42.80;98597.00;4814667;29;102946;-80
2022/02/10 23:33:31;;;;;;;;;4.50;3.75;;;;;15.06;42.66;98604.13;4820638;28;103630;-80
2022/02/10 23:38:50;;;;;;;;;4.75;4.75;;;;;15.02;42.88;98608.34;4807899;28;110777;-80
2022/02/10 23:43:53;;;;;;;;;4.00;4.00;;;;;15.03;43.23;98601.84;4811913;29;102238;-81
2022/02/10 23:46:21;;;;;;;;;5.75;5.00;;;;;15.05;43.15;98602.44;4812270;28;104219;-80
2022/02/10 23:48:48;;;;;;;;;5.50;5.25;;;;;15.06;43.37;98620.44;4817024;28;102345;-80
2022/02/10 23:51:17;;;;;;;;;5.25;4.00;;;;;15.05;42.75;98613.34;4816584;28;102923;-81
2022/02/10 23:53:44;;;;;;;;;4.50;3.00;;;;;15.05;43.11;98607.88;4819072;28;106101;-80
2022/02/10 23:56:15;;;;;;;;;3.50;3.50;;;;;15.06;43.13;98615.00;4821927;28;104094;-80
2022/02/10 23:59:10;;;;;;;;;6.00;5.00;;;;;15.03;43.06;98610.03;4815564;28;102534;-81
